Time;durP1;ratioP1;P1;durP2;ratioP2;P2;SDS_P1;SDS_P2;PMS_P1;PMS_P2;Temp;Humidity;BMP_temperature;BMP_pressure;BME280_temperature;BME280_humidity;BME280_pressure;Samples;Min_cycle;Max_cycle;Signal;HPM_P1;HPM_P2
2023/12/15 00:00:03;;;;;;;0.40;0.40;;;;;;;3.39;100.00;100448.97;5098823;28;20107;-59
2023/12/15 00:02:41;;;;;;;0.40;0.40;;;;;;;3.46;100.00;100452.63;5098840;28;20039;-59
2023/12/15 00:05:09;;;;;;;0.43;0.43;;;;;;;3.39;100.00;100455.09;5097328;28;20148;-59
2023/12/15 00:07:36;;;;;;;0.50;0.50;;;;;;;3.32;100.00;100453.28;5099692;28;20074;-59
2023/12/15 00:10:06;;;;;;;0.40;0.40;;;;;;;3.30;100.00;100460.59;5099630;28;20042;-59
2023/12/15 00:12:33;;;;;;;0.60;0.60;;;;;;;3.29;100.00;100461.56;5093731;27;20436;-59
2023/12/15 00:15:00;;;;;;;0.50;0.50;;;;;;;3.31;100.00;100467.53;5097285;28;20631;-59
2023/12/15 00:17:27;;;;;;;0.60;0.60;;;;;;;3.30;100.00;100463.25;5091977;28;20051;-59
2023/12/15 00:19:54;;;;;;;0.43;0.43;;;;;;;3.30;100.00;100463.25;5098063;28;20497;-59
2023/12/15 00:22:21;;;;;;;0.60;0.60;;;;;;;3.30;100.00;100463.25;5099130;28;20059;-60
2023/12/15 00:24:48;;;;;;;0.57;0.57;;;;;;;3.29;100.00;100475.66;5099731;28;20070;-60
2023/12/15 00:27:17;;;;;;;0.50;0.50;;;;;;;3.15;100.00;100481.63;5095194;28;20540;-60
2023/12/15 00:29:44;;;;;;;0.50;0.50;;;;;;;3.19;100.00;100483.75;5093570;28;20040;-59
2023/12/15 00:32:11;;;;;;;0.50;0.50;;;;;;;3.12;100.00;100490.72;5098291;28;20431;-60
2023/12/15 00:34:38;;;;;;;0.50;0.50;;;;;;;2.99;100.00;100487.69;5098193;28;20574;-60
2023/12/15 00:37:05;;;;;;;0.50;0.50;;;;;;;2.89;100.00;100502.91;5100035;28;20127;-60
2023/12/15 00:39:32;;;;;;;0.50;0.50;;;;;;;2.87;100.00;100496.91;5097796;28;20059;-58
2023/12/15 00:41:58;;;;;;;0.50;0.50;;;;;;;2.81;100.00;100496.59;5100446;28;20111;-59
2023/12/15 00:44:27;;;;;;;0.60;0.60;;;;;;;2.72;100.00;100496.72;5097075;28;20646;-60
2023/12/15 00:46:54;;;;;;;0.50;0.50;;;;;;;2.61;100.00;100499.66;5096559;28;20189;-61
2023/12/15 00:49:21;;;;;;;0.40;0.40;;;;;;;2.56;100.00;100505.44;5098620;28;20039;-59
2023/12/15 00:51:48;;;;;;;0.47;0.47;;;;;;;2.55;100.00;100507.25;5099374;28;20036;-59
2023/12/15 00:54:15;;;;;;;0.60;0.60;;;;;;;2.52;100.00;100501.44;5098307;28;20152;-58
2023/12/15 00:56:42;;;;;;;0.35;0.35;;;;;;;2.27;100.00;100501.34;5096802;28;20039;-58
2023/12/15 00:59:09;;;;;;;0.50;0.50;;;;;;;2.23;100.00;100507.91;5098457;28;20063;-60
2023/12/15 01:01:37;;;;;;;0.38;0.38;;;;;;;2.29;100.00;100511.75;5094167;28;20047;-60
2023/12/15 01:04:05;;;;;;;0.65;0.65;;;;;;;2.30;100.00;100519.53;5073056;28;20075;-60
2023/12/15 01:06:32;;;;;;;0.40;0.40;;;;;;;2.22;100.00;100522.16;5093369;28;20079;-59
2023/12/15 01:08:59;;;;;;;0.70;0.70;;;;;;;2.21;100.00;100515.19;5096342;28;20538;-59
2023/12/15 01:11:26;;;;;;;0.60;0.60;;;;;;;2.10;100.00;100518.09;5102881;27;20050;-60
2023/12/15 01:13:53;;;;;;;0.50;0.50;;;;;;;2.13;100.00;100517.78;5097721;28;20454;-60
2023/12/15 01:16:20;;;;;;;0.60;0.60;;;;;;;2.13;100.00;100521.25;5102872;28;20413;-60
2023/12/15 01:18:48;;;;;;;0.60;0.60;;;;;;;2.17;100.00;100524.41;5099575;28;20533;-60
2023/12/15 01:21:15;;;;;;;0.60;0.60;;;;;;;1.90;100.00;100539.44;5080484;28;20238;-59
2023/12/15 01:23:42;;;;;;;0.50;0.50;;;;;;;1.88;100.00;100544.06;5097896;28;20135;-60
2023/12/15 01:26:10;;;;;;;0.70;0.70;;;;;;;1.90;100.00;100554.50;5104778;27;20067;-60
2023/12/15 01:28:36;;;;;;;0.60;0.60;;;;;;;1.89;100.00;100555.47;5097675;28;20495;-60
2023/12/15 01:31:04;;;;;;;0.60;0.60;;;;;;;1.83;100.00;100551.63;5104408;28;20079;-60
2023/12/15 01:33:32;;;;;;;0.50;0.50;;;;;;;1.67;100.00;100554.13;5101360;28;20040;-60
2023/12/15 01:36:00;;;;;;;0.52;0.52;;;;;;;1.90;100.00;100554.50;5103957;28;20089;-60
2023/12/15 01:38:27;;;;;;;0.40;0.40;;;;;;;1.76;100.00;100563.78;5097718;28;20039;-60
2023/12/15 01:40:54;;;;;;;0.60;0.60;;;;;;;1.62;100.00;100559.03;5103170;28;20812;-60
2023/12/15 01:43:21;;;;;;;0.60;0.60;;;;;;;1.62;100.00;100556.38;5085057;28;20051;-60
2023/12/15 01:45:48;;;;;;;0.60;0.60;;;;;;;1.78;100.00;100558.34;5103914;28;20044;-60
2023/12/15 01:48:15;;;;;;;0.57;0.57;;;;;;;1.89;100.00;100558.94;5100208;28;20054;-59
2023/12/15 01:50:43;;;;;;;0.70;0.70;;;;;;;1.92;100.00;100568.38;5103495;28;20582;-59
2023/12/15 01:53:11;;;;;;;0.60;0.60;;;;;;;1.91;100.00;100575.47;5102423;28;20138;-59
2023/12/15 01:55:38;;;;;;;0.70;0.70;;;;;;;1.84;100.00;100574.41;5102236;28;20055;-59
2023/12/15 01:58:05;;;;;;;0.60;0.60;;;;;;;1.84;100.00;100577.06;5102112;28;20058;-60
2023/12/15 02:00:32;;;;;;;0.50;0.50;;;;;;;1.53;100.00;100589.03;5101876;28;20075;-59
2023/12/15 02:02:59;;;;;;;0.60;0.60;;;;;;;1.76;100.00;100584.94;5100377;28;20167;-60
2023/12/15 02:05:26;;;;;;;0.60;0.60;;;;;;;1.91;100.00;100596.63;5100553;28;20052;-60
2023/12/15 02:07:53;;;;;;;0.60;0.60;;;;;;;1.82;100.00;100594.91;5102425;28;20064;-60
2023/12/15 02:10:24;;;;;;;0.52;0.52;;;;;;;1.70;100.00;100599.59;5100621;28;20058;-60
2023/12/15 02:12:51;;;;;;;0.50;0.50;;;;;;;1.42;100.00;100596.19;5106461;27;20097;-60
2023/12/15 02:15:18;;;;;;;0.50;0.50;;;;;;;1.55;100.00;100602.91;5102088;28;20629;-60
2023/12/15 02:17:45;;;;;;;0.60;0.60;;;;;;;1.84;100.00;100605.31;5102227;28;20059;-58
2023/12/15 02:20:12;;;;;;;0.55;0.55;;;;;;;1.92;100.00;100608.03;5100062;28;20226;-58
2023/12/15 02:22:41;;;;;;;0.50;0.50;;;;;;;1.87;100.00;100612.94;5100776;28;20047;-58
2023/12/15 02:25:08;;;;;;;0.60;0.60;;;;;;;1.73;100.00;100616.97;5102278;28;20140;-61
2023/12/15 02:27:35;;;;;;;0.50;0.50;;;;;;;1.57;100.00;100616.78;5097338;28;20063;-61
2023/12/15 02:30:03;;;;;;;0.68;0.68;;;;;;;1.68;100.00;100616.59;5098778;28;20064;-60
2023/12/15 02:32:29;;;;;;;0.55;0.55;;;;;;;1.71;100.00;100613.63;5094303;28;20184;-60
2023/12/15 02:34:57;;;;;;;0.60;0.60;;;;;;;1.93;100.00;100617.63;5098641;28;20043;-60
2023/12/15 02:37:24;;;;;;;0.70;0.70;;;;;;;2.13;100.00;100613.00;5101610;28;20046;-59
2023/12/15 02:39:52;;;;;;;0.57;0.57;;;;;;;2.21;100.00;100610.41;5101377;28;20050;-59
2023/12/15 02:42:19;;;;;;;0.60;0.60;;;;;;;2.29;100.00;100607.81;5102026;28;20112;-59
2023/12/15 02:44:46;;;;;;;0.57;0.57;;;;;;;2.42;100.00;100617.16;5100969;28;20100;-59
2023/12/15 02:47:13;;;;;;;0.55;0.55;;;;;;;2.47;100.00;100606.94;5096079;28;20128;-59
2023/12/15 02:49:40;;;;;;;0.55;0.55;;;;;;;2.53;100.00;100614.28;5102096;27;20143;-59
2023/12/15 02:52:08;;;;;;;0.60;0.60;;;;;;;2.58;100.00;100612.81;5101305;28;20052;-59
2023/12/15 02:54:35;;;;;;;0.55;0.55;;;;;;;2.59;100.00;100613.63;5099895;28;20070;-59
2023/12/15 02:57:03;;;;;;;0.52;0.52;;;;;;;2.62;100.00;100617.78;5097599;28;20044;-59
2023/12/15 02:59:31;;;;;;;0.50;0.50;;;;;;;2.69;100.00;100619.66;5095444;28;20293;-59
2023/12/15 03:01:58;;;;;;;0.50;0.50;;;;;;;2.68;100.00;100618.00;5100884;28;20104;-59
2023/12/15 03:04:25;;;;;;;0.60;0.60;;;;;;;2.67;100.00;100632.22;5092605;28;20052;-59
2023/12/15 03:06:52;;;;;;;0.50;0.50;;;;;;;2.64;100.00;100627.22;5101358;28;20540;-59
2023/12/15 03:09:19;;;;;;;0.55;0.55;;;;;;;2.71;100.00;100630.09;5101036;27;20040;-59
2023/12/15 03:11:46;;;;;;;0.50;0.50;;;;;;;2.72;100.00;100626.44;5101921;27;20545;-59
2023/12/15 03:14:14;;;;;;;0.50;0.50;;;;;;;2.73;100.00;100628.13;5100639;28;20039;-59
2023/12/15 03:16:41;;;;;;;0.50;0.50;;;;;;;2.74;100.00;100630.59;5100845;28;20396;-59
2023/12/15 03:19:08;;;;;;;0.40;0.40;;;;;;;2.80;100.00;100637.91;5101613;28;20040;-59
2023/12/15 03:21:35;;;;;;;0.60;0.60;;;;;;;2.79;100.00;100638.88;5098639;28;20036;-59
2023/12/15 03:24:02;;;;;;;0.60;0.60;;;;;;;2.74;100.00;100638.53;5103607;27;20071;-59
2023/12/15 03:26:29;;;;;;;0.57;0.57;;;;;;;2.80;100.00;100651.16;5099780;27;20463;-59
2023/12/15 03:28:57;;;;;;;0.55;0.55;;;;;;;2.77;100.00;100642.69;5090573;28;20415;-59
2023/12/15 03:31:25;;;;;;;0.40;0.40;;;;;;;2.78;100.00;100639.88;5096454;28;20141;-59
2023/12/15 03:33:52;;;;;;;0.57;0.57;;;;;;;2.83;100.00;100647.38;5098919;28;20154;-58
2023/12/15 03:36:19;;;;;;;0.55;0.55;;;;;;;2.83;100.00;100651.84;5101040;28;20055;-59
2023/12/15 03:38:46;;;;;;;0.50;0.50;;;;;;;2.83;100.00;100647.38;5100006;28;20851;-59
2023/12/15 03:41:13;;;;;;;0.40;0.40;;;;;;;2.85;100.00;100649.88;5101470;28;20433;-59
2023/12/15 03:43:40;;;;;;;0.50;0.50;;;;;;;2.90;100.00;100648.41;5099588;28;20051;-59
2023/12/15 03:46:07;;;;;;;0.50;0.50;;;;;;;2.98;100.00;100655.56;5096916;28;20109;-59
2023/12/15 03:48:36;;;;;;;0.50;0.50;;;;;;;3.02;100.00;100656.88;5096785;28;20489;-59
2023/12/15 03:51:03;;;;;;;0.40;0.40;;;;;;;2.96;100.00;100657.53;5102222;28;20082;-59
2023/12/15 03:53:30;;;;;;;0.60;0.60;;;;;;;2.99;100.00;100662.50;5097684;28;20102;-59
2023/12/15 03:55:57;;;;;;;0.57;0.57;;;;;;;3.02;100.00;100656.88;5100667;28;20100;-59
2023/12/15 03:58:24;;;;;;;0.60;0.60;;;;;;;3.04;100.00;100657.56;5099540;28;20054;-59
2023/12/15 04:00:51;;;;;;;0.60;0.60;;;;;;;3.02;100.00;100662.19;5100406;28;20557;-59
2023/12/15 04:03:19;;;;;;;0.50;0.50;;;;;;;3.03;100.00;100663.84;5097078;28;20244;-59
2023/12/15 04:05:47;;;;;;;0.50;0.50;;;;;;;3.03;100.00;100671.81;5100430;28;20043;-61
2023/12/15 04:08:14;;;;;;;0.50;0.50;;;;;;;3.12;100.00;100677.97;5100056;28;20378;-59
2023/12/15 04:10:41;;;;;;;0.50;0.50;;;;;;;3.10;100.00;100670.19;5100129;28;20068;-59
2023/12/15 04:13:08;;;;;;;0.50;0.50;;;;;;;3.18;100.00;100672.03;5096615;28;20046;-59
2023/12/15 04:15:35;;;;;;;0.52;0.52;;;;;;;3.18;100.00;100672.03;5097608;28;20048;-58
2023/12/15 04:18:04;;;;;;;0.50;0.50;;;;;;;3.13;100.00;100677.00;5111220;27;20338;-59
2023/12/15 04:20:31;;;;;;;0.50;0.50;;;;;;;3.14;100.00;100687.41;5097531;28;20552;-59
2023/12/15 04:22:59;;;;;;;0.60;0.60;;;;;;;3.23;100.00;100690.94;5095930;28;20050;-59
2023/12/15 04:25:26;;;;;;;0.40;0.40;;;;;;;3.22;100.00;100698.06;5100170;28;20047;-59
2023/12/15 04:27:53;;;;;;;0.50;0.50;;;;;;;3.25;100.00;100694.28;5098052;28;20051;-59
2023/12/15 04:30:20;;;;;;;0.40;0.40;;;;;;;3.28;100.00;100693.13;5098977;28;20040;-59
2023/12/15 04:32:47;;;;;;;0.52;0.52;;;;;;;3.29;100.00;100694.75;5097542;28;20440;-59
2023/12/15 04:35:14;;;;;;;0.57;0.57;;;;;;;3.29;100.00;100694.75;5099308;28;20562;-59
2023/12/15 04:37:43;;;;;;;0.40;0.40;;;;;;;3.40;100.00;100691.84;5095820;28;20070;-59
2023/12/15 04:40:13;;;;;;;0.40;0.40;;;;;;;3.56;100.00;100697.19;5100838;28;20047;-59
2023/12/15 04:42:40;;;;;;;;;;;;;;;3.49;100.00;100695.34;5099219;28;20875;-59
2023/12/15 04:45:08;;;;;;;0.57;0.57;;;;;;;3.51;100.00;100698.66;5096274;28;20300;-59
2023/12/15 04:47:35;;;;;;;0.55;0.55;;;;;;;3.44;100.00;100714.38;5097939;28;20550;-60
2023/12/15 04:50:02;;;;;;;0.40;0.40;;;;;;;3.43;100.00;100718.84;5099596;28;20401;-60
2023/12/15 04:52:29;;;;;;;0.40;0.40;;;;;;;3.44;100.00;100719.69;5094202;28;20086;-60
2023/12/15 04:54:56;;;;;;;0.40;0.40;;;;;;;3.55;100.00;100721.22;5099136;28;20035;-60
2023/12/15 04:57:24;;;;;;;0.50;0.50;;;;;;;3.53;100.00;100729.31;5098422;28;20088;-60
2023/12/15 04:59:52;;;;;;;0.50;0.50;;;;;;;3.53;100.00;100731.97;5098706;28;20071;-60
2023/12/15 05:02:19;;;;;;;0.50;0.50;;;;;;;3.53;100.00;100726.69;5097690;28;20055;-60
2023/12/15 05:04:46;;;;;;;0.43;0.43;;;;;;;3.48;100.00;100723.69;5091854;28;20035;-61
2023/12/15 05:07:13;;;;;;;0.60;0.60;;;;;;;3.45;100.00;100724.00;5096134;28;20052;-59
2023/12/15 05:09:40;;;;;;;0.47;0.47;;;;;;;3.46;100.00;100734.44;5093314;28;20067;-59
2023/12/15 05:12:08;;;;;;;0.40;0.40;;;;;;;3.55;100.00;100748.56;5101412;28;20120;-59
2023/12/15 05:14:37;;;;;;;0.50;0.50;;;;;;;3.53;100.00;100755.84;5099702;28;20040;-60
2023/12/15 05:17:04;;;;;;;0.40;0.40;;;;;;;3.55;100.00;100761.00;5097520;28;20446;-61
2023/12/15 05:19:31;;;;;;;0.50;0.50;;;;;;;3.59;100.00;100765.78;5098015;28;20534;-59
2023/12/15 05:21:59;;;;;;;0.30;0.30;;;;;;;3.66;100.00;100766.81;5096703;28;20063;-60
2023/12/15 05:24:26;;;;;;;0.50;0.50;;;;;;;3.66;100.00;100777.44;5098906;28;20050;-59
2023/12/15 05:26:53;;;;;;;0.47;0.47;;;;;;;3.68;100.00;100777.28;5100104;28;20096;-59
2023/12/15 05:29:20;;;;;;;0.50;0.50;;;;;;;3.67;100.00;100773.81;5099738;28;20075;-59
2023/12/15 05:31:48;;;;;;;0.45;0.45;;;;;;;3.62;100.00;100770.81;5097571;28;20107;-59
2023/12/15 05:34:15;;;;;;;0.43;0.43;;;;;;;3.66;100.00;100771.31;5095365;28;20473;-58
2023/12/15 05:36:43;;;;;;;0.50;0.50;;;;;;;3.51;100.00;100767.59;5097618;28;20075;-61
2023/12/15 05:39:10;;;;;;;0.45;0.45;;;;;;;3.50;100.00;100765.94;5096123;28;20040;-58
2023/12/15 05:41:44;;;;;;;0.45;0.45;;;;;;;3.49;100.00;100767.75;5103909;28;20149;-60
2023/12/15 05:44:12;;;;;;;0.50;0.50;;;;;;;3.62;100.00;100764.66;5096788;28;20067;-59
2023/12/15 05:46:41;;;;;;;0.50;0.50;;;;;;;3.66;100.00;100772.13;5096648;28;20135;-59
2023/12/15 05:49:10;;;;;;;0.50;0.50;;;;;;;3.68;100.00;100764.84;5099018;28;20119;-59
2023/12/15 05:51:37;;;;;;;0.50;0.50;;;;;;;3.68;100.00;100764.84;5092998;28;20559;-60
2023/12/15 05:54:05;;;;;;;0.40;0.40;;;;;;;3.63;100.00;100767.16;5091213;28;20032;-60
2023/12/15 05:56:32;;;;;;;0.50;0.50;;;;;;;3.65;100.00;100772.31;5099134;28;20048;-59
2023/12/15 05:58:59;;;;;;;0.50;0.50;;;;;;;3.66;100.00;100769.47;5098966;28;20040;-60
2023/12/15 06:01:26;;;;;;;0.55;0.55;;;;;;;3.67;100.00;100765.84;5101302;28;20101;-59
2023/12/15 06:03:53;;;;;;;0.50;0.50;;;;;;;3.65;100.00;100767.00;5101546;28;20051;-59
2023/12/15 06:06:25;;;;;;;0.40;0.40;;;;;;;3.73;100.00;100768.84;5102330;28;20153;-59
2023/12/15 06:08:53;;;;;;;0.50;0.50;;;;;;;3.64;100.00;100766.19;5100799;28;20036;-59
2023/12/15 06:11:20;;;;;;;0.52;0.52;;;;;;;3.66;100.00;100780.09;5094389;28;20252;-60
2023/12/15 06:13:47;;;;;;;0.40;0.40;;;;;;;3.71;100.00;100784.91;5094374;28;21077;-60
2023/12/15 06:16:17;;;;;;;0.50;0.50;;;;;;;3.69;100.00;100778.94;5100841;28;20031;-60
2023/12/15 06:18:45;;;;;;;0.45;0.45;;;;;;;3.68;100.00;100788.72;5097249;28;20074;-60
2023/12/15 06:21:22;;;;;;;0.50;0.50;;;;;;;3.73;100.00;100782.13;5097930;28;20138;-59
2023/12/15 06:23:49;;;;;;;0.50;0.50;;;;;;;3.74;100.00;100799.66;5098967;28;20055;-59
2023/12/15 06:26:19;;;;;;;0.50;0.50;;;;;;;3.71;100.00;100797.34;5102819;28;20412;-60
2023/12/15 06:28:47;;;;;;;0.40;0.40;;;;;;;3.75;100.00;100802.19;5094923;28;20048;-60
2023/12/15 06:31:17;;;;;;;0.50;0.50;;;;;;;3.73;100.00;100805.97;5101946;28;20066;-59
2023/12/15 06:33:44;;;;;;;0.50;0.50;;;;;;;3.74;100.00;100826.19;5095540;28;20085;-59
2023/12/15 06:36:11;;;;;;;0.43;0.43;;;;;;;3.68;100.00;100817.88;5092143;28;20072;-59
2023/12/15 06:38:42;;;;;;;0.60;0.60;;;;;;;3.81;100.00;100806.81;5100723;28;20036;-59
2023/12/15 06:41:10;;;;;;;0.52;0.52;;;;;;;3.72;100.00;100801.66;5093984;28;20469;-59
2023/12/15 06:43:39;;;;;;;0.50;0.50;;;;;;;3.88;100.00;100812.34;5098547;28;20134;-59
2023/12/15 06:46:06;;;;;;;0.50;0.50;;;;;;;3.91;100.00;100806.69;5094888;27;20158;-59
2023/12/15 06:48:34;;;;;;;0.55;0.55;;;;;;;3.83;100.00;100804.84;5095014;28;20040;-59
2023/12/15 06:51:01;;;;;;;0.47;0.47;;;;;;;3.92;100.00;100802.22;5101243;27;20152;-59
2023/12/15 06:53:28;;;;;;;0.50;0.50;;;;;;;3.85;100.00;100802.06;5101023;28;20134;-60
2023/12/15 06:55:58;;;;;;;0.47;0.47;;;;;;;3.82;100.00;100808.50;5099827;28;20044;-59
2023/12/15 06:58:25;;;;;;;0.50;0.50;;;;;;;3.89;100.00;100819.28;5099992;28;20126;-59
2023/12/15 07:00:53;;;;;;;0.50;0.50;;;;;;;3.83;100.00;100814.63;5100300;28;20086;-59
2023/12/15 07:03:20;;;;;;;0.50;0.50;;;;;;;3.81;100.00;100828.06;5098490;28;20081;-59
2023/12/15 07:05:47;;;;;;;0.60;0.60;;;;;;;3.85;100.00;100831.22;5098678;28;20077;-60
2023/12/15 07:08:14;;;;;;;0.40;0.40;;;;;;;3.82;100.00;100844.78;5096468;28;20046;-59
2023/12/15 07:10:41;;;;;;;0.57;0.57;;;;;;;3.96;100.00;100840.72;5096518;28;20056;-59
2023/12/15 07:13:10;;;;;;;0.50;0.50;;;;;;;3.85;100.00;100847.16;5104940;27;20463;-60
2023/12/15 07:15:37;;;;;;;0.40;0.40;;;;;;;3.88;100.00;100845.00;5100292;28;20040;-59
2023/12/15 07:18:04;;;;;;;0.50;0.50;;;;;;;3.85;100.00;100844.50;5096130;28;20499;-59
2023/12/15 07:20:31;;;;;;;0.50;0.50;;;;;;;3.82;100.00;100852.75;5100560;28;20166;-60
2023/12/15 07:22:58;;;;;;;0.40;0.40;;;;;;;3.88;100.00;100866.22;5099025;27;20043;-59
2023/12/15 07:25:25;;;;;;;0.50;0.50;;;;;;;3.85;100.00;100863.06;5099025;27;20047;-59
2023/12/15 07:27:53;;;;;;;0.40;0.40;;;;;;;3.88;100.00;100866.22;5094388;28;20059;-59
2023/12/15 07:30:22;;;;;;;0.50;0.50;;;;;;;3.90;100.00;100868.72;5092051;28;20089;-59
2023/12/15 07:32:49;;;;;;;0.50;0.50;;;;;;;4.11;100.00;100863.81;5093560;28;20588;-60
2023/12/15 07:35:16;;;;;;;0.55;0.55;;;;;;;4.13;100.00;100861.00;5100673;28;20043;-59
2023/12/15 07:37:43;;;;;;;0.50;0.50;;;;;;;3.94;100.00;100875.34;5096546;27;20424;-59
2023/12/15 07:40:12;;;;;;;0.40;0.40;;;;;;;3.96;100.00;100873.38;5100285;28;20538;-59
2023/12/15 07:42:39;;;;;;;0.60;0.60;;;;;;;4.03;100.00;100885.03;5095390;28;20044;-60
2023/12/15 07:45:07;;;;;;;0.50;0.50;;;;;;;4.08;100.00;100901.28;5100619;27;20039;-59
2023/12/15 07:47:35;;;;;;;0.45;0.45;;;;;;;4.01;100.00;100900.25;5096790;28;20043;-59
2023/12/15 07:50:03;;;;;;;0.50;0.50;;;;;;;3.96;100.00;100905.22;5101582;27;20505;-59
2023/12/15 07:52:30;;;;;;;0.55;0.55;;;;;;;3.99;100.00;100909.38;5096159;28;20048;-61
2023/12/15 07:54:57;;;;;;;0.52;0.52;;;;;;;4.07;100.00;100914.75;5095634;28;20139;-59
2023/12/15 07:57:24;;;;;;;0.50;0.50;;;;;;;3.96;100.00;100918.47;5100175;28;20051;-59
2023/12/15 07:59:51;;;;;;;0.40;0.40;;;;;;;3.97;100.00;100922.81;5100271;28;20079;-59
2023/12/15 08:02:20;;;;;;;0.60;0.60;;;;;;;4.06;100.00;100916.53;5098776;27;20375;-59
2023/12/15 08:04:49;;;;;;;0.40;0.40;;;;;;;4.13;100.00;100911.44;5096666;28;20079;-61
2023/12/15 08:07:16;;;;;;;0.38;0.38;;;;;;;4.06;100.00;100911.22;5096639;28;20051;-60
2023/12/15 08:09:43;;;;;;;0.40;0.40;;;;;;;4.02;100.00;100909.91;5095072;28;20077;-60
2023/12/15 08:12:10;;;;;;;0.60;0.60;;;;;;;4.08;100.00;100919.88;5100441;28;20051;-60
2023/12/15 08:14:37;;;;;;;0.50;0.50;;;;;;;4.39;100.00;100919.31;5095606;27;20282;-60
2023/12/15 08:17:05;;;;;;;0.50;0.50;;;;;;;4.42;100.00;100916.38;5097771;28;20051;-60
2023/12/15 08:19:34;;;;;;;0.50;0.50;;;;;;;4.10;100.00;100925.84;5097591;28;20414;-59
2023/12/15 08:22:02;;;;;;;0.50;0.50;;;;;;;4.07;100.00;100926.19;5099254;28;20446;-59
2023/12/15 08:24:29;;;;;;;0.40;0.40;;;;;;;4.13;100.00;100930.00;5104270;27;20055;-59
2023/12/15 08:26:57;;;;;;;0.50;0.50;;;;;;;4.18;100.00;100924.22;5096054;28;20108;-59
2023/12/15 08:29:24;;;;;;;0.50;0.50;;;;;;;4.11;100.00;100924.84;5096358;28;20052;-59
2023/12/15 08:31:52;;;;;;;0.40;0.40;;;;;;;4.14;100.00;100938.78;5102238;27;20153;-59
2023/12/15 08:34:19;;;;;;;0.50;0.50;;;;;;;4.13;100.00;100947.75;5098940;28;20326;-60
2023/12/15 08:36:46;;;;;;;0.60;0.60;;;;;;;4.21;100.00;100947.78;5097323;28;20054;-60
2023/12/15 08:39:14;;;;;;;0.40;0.40;;;;;;;4.18;100.00;100951.59;5099101;28;20044;-58
2023/12/15 08:41:41;;;;;;;0.50;0.50;;;;;;;4.25;100.00;100963.25;5100191;27;20501;-58
2023/12/15 08:44:08;;;;;;;0.50;0.50;;;;;;;4.45;100.00;100952.38;5098771;28;20040;-58
2023/12/15 08:46:36;;;;;;;0.50;0.50;;;;;;;4.53;100.00;100958.53;5095222;28;20406;-58
2023/12/15 08:49:03;;;;;;;0.35;0.35;;;;;;;4.47;100.00;100956.53;5098799;28;20040;-58
2023/12/15 08:51:33;;;;;;;0.32;0.32;;;;;;;4.51;100.00;100960.53;5099882;28;20598;-58
2023/12/15 08:54:00;;;;;;;0.50;0.50;;;;;;;4.63;100.00;100965.56;5094209;28;20121;-59
2023/12/15 08:56:29;;;;;;;0.40;0.40;;;;;;;4.70;100.00;100966.56;5099635;28;20054;-59
2023/12/15 08:58:56;;;;;;;0.50;0.50;;;;;;;4.54;100.00;100988.56;5096481;28;20047;-58
2023/12/15 09:01:23;;;;;;;0.50;0.50;;;;;;;4.54;100.00;100989.44;5099485;28;20452;-58
2023/12/15 09:03:53;;;;;;;0.52;0.52;;;;;;;4.56;100.00;100991.91;5075702;28;20044;-59
2023/12/15 09:06:21;;;;;;;0.40;0.40;;;;;;;4.50;100.00;101004.00;5093169;28;20417;-60
2023/12/15 09:08:48;;;;;;;0.45;0.45;;;;;;;4.57;100.00;101006.00;5087295;28;20449;-60
2023/12/15 09:11:15;;;;;;;0.40;0.40;;;;;;;4.59;100.00;101018.13;5091550;28;20062;-60
2023/12/15 09:13:44;;;;;;;0.40;0.40;;;;;;;4.61;100.00;101016.16;5095116;27;20079;-59
2023/12/15 09:16:12;;;;;;;0.30;0.30;;;;;;;4.69;100.00;101018.00;5098520;28;20124;-60
2023/12/15 09:18:42;;;;;;;0.30;0.30;;;;;;;4.68;100.00;101024.34;5093464;28;20044;-58
2023/12/15 09:21:10;;;;;;;0.30;0.30;;;;;;;4.65;100.00;101025.47;5113659;27;20066;-58
2023/12/15 09:23:38;;;;;;;0.40;0.40;;;;;;;4.64;100.00;101030.94;5093580;28;20043;-59
2023/12/15 09:26:05;;;;;;;0.40;0.40;;;;;;;4.63;100.00;101029.28;5099301;28;20143;-61
2023/12/15 09:28:35;;;;;;;0.45;0.45;;;;;;;4.71;100.00;101031.97;5098955;28;20047;-60
2023/12/15 09:31:03;;;;;;;0.50;0.50;;;;;;;4.74;100.00;101045.78;5102746;27;20039;-58
2023/12/15 09:33:30;;;;;;;0.50;0.50;;;;;;;4.77;100.00;101052.59;5100615;28;20339;-60
2023/12/15 09:36:00;;;;;;;0.40;0.40;;;;;;;4.78;100.00;101054.25;5098280;27;20047;-59
2023/12/15 09:38:27;;;;;;;0.40;0.40;;;;;;;4.91;100.00;101062.59;5100939;28;20036;-60
2023/12/15 09:40:54;;;;;;;0.50;0.50;;;;;;;4.88;100.00;101065.59;5099633;27;20709;-58
2023/12/15 09:43:21;;;;;;;0.47;0.47;;;;;;;4.90;100.00;101073.41;5102959;27;20772;-61
2023/12/15 09:45:48;;;;;;;0.40;0.40;;;;;;;5.07;100.00;101064.50;5102535;28;20104;-60
2023/12/15 09:48:17;;;;;;;0.40;0.40;;;;;;;5.19;100.00;101065.88;5101332;28;20112;-60
2023/12/15 09:50:49;;;;;;;0.52;0.52;;;;;;;5.35;100.00;101061.56;5115412;27;20051;-60
2023/12/15 09:53:16;;;;;;;0.50;0.50;;;;;;;5.47;100.00;101054.13;5098800;28;20059;-60
2023/12/15 09:55:43;;;;;;;0.40;0.40;;;;;;;5.58;100.00;101057.28;5101370;28;20141;-60
2023/12/15 09:58:10;;;;;;;0.40;0.40;;;;;;;5.38;100.00;101067.38;5096593;28;20050;-60
2023/12/15 10:00:39;;;;;;;0.50;0.50;;;;;;;5.53;100.00;101069.41;5104985;27;20039;-60
2023/12/15 10:03:06;;;;;;;0.30;0.30;;;;;;;5.50;100.00;101064.41;5102850;27;20384;-60
2023/12/15 10:05:35;;;;;;;0.40;0.40;;;;;;;5.57;100.00;101068.09;5105364;27;20047;-60
2023/12/15 10:08:02;;;;;;;0.40;0.40;;;;;;;5.47;100.00;101075.41;5102213;28;20118;-59
2023/12/15 10:10:29;;;;;;;0.40;0.40;;;;;;;5.46;100.00;101076.38;5102247;28;20055;-60
2023/12/15 10:12:57;;;;;;;0.30;0.30;;;;;;;5.51;100.00;101076.72;5098608;27;20048;-60
2023/12/15 10:15:24;;;;;;;0.40;0.40;;;;;;;5.41;100.00;101082.19;5106480;27;20078;-60
2023/12/15 10:17:55;;;;;;;0.30;0.30;;;;;;;5.54;100.00;101092.34;5099395;28;20458;-60
2023/12/15 10:20:21;;;;;;;;;;;;;;;5.56;100.00;101087.69;5100983;28;20577;-58
2023/12/15 10:22:52;;;;;;;0.50;0.50;;;;;;;5.54;100.00;101089.69;5100539;28;19931;-60
2023/12/15 10:25:21;;;;;;;0.35;0.35;;;;;;;5.57;100.00;101098.19;5101720;28;20433;-60
2023/12/15 10:27:48;;;;;;;0.50;0.50;;;;;;;5.70;100.00;101097.69;5101395;28;20114;-60
2023/12/15 10:30:16;;;;;;;0.30;0.30;;;;;;;5.53;100.00;101098.66;5101804;28;20044;-60
2023/12/15 10:32:43;;;;;;;0.50;0.50;;;;;;;5.44;100.00;101104.94;5099688;28;20560;-59
2023/12/15 10:35:11;;;;;;;0.47;0.47;;;;;;;5.51;100.00;101100.66;5099758;27;20056;-61
2023/12/15 10:37:38;;;;;;;0.35;0.35;;;;;;;5.67;100.00;101103.34;5096307;28;20369;-58
2023/12/15 10:40:07;;;;;;;0.45;0.45;;;;;;;5.71;100.00;101095.84;5102306;28;20459;-59
2023/12/15 10:42:35;;;;;;;0.40;0.40;;;;;;;5.83;100.00;101106.00;5101170;28;20462;-58
2023/12/15 10:45:02;;;;;;;0.30;0.30;;;;;;;5.66;100.00;101099.00;5094407;28;20611;-59
2023/12/15 10:47:30;;;;;;;0.30;0.30;;;;;;;5.81;100.00;101107.16;5100467;28;20050;-59
2023/12/15 10:49:57;;;;;;;0.50;0.50;;;;;;;5.78;100.00;101111.00;5101780;28;20047;-59
2023/12/15 10:52:25;;;;;;;0.30;0.30;;;;;;;5.80;100.00;101118.81;5102338;28;20425;-59
2023/12/15 10:54:52;;;;;;;0.40;0.40;;;;;;;5.81;100.00;101110.66;5101636;28;20050;-58
2023/12/15 10:57:21;;;;;;;0.40;0.40;;;;;;;5.87;100.00;101113.69;5101808;28;20173;-59
2023/12/15 10:59:50;;;;;;;0.40;0.40;;;;;;;5.90;100.00;101114.16;5100821;28;20046;-59
2023/12/15 11:02:18;;;;;;;0.40;0.40;;;;;;;6.00;100.00;101119.38;5099917;28;20529;-59
2023/12/15 11:04:48;;;;;;;0.35;0.35;;;;;;;6.31;100.00;101126.66;5097069;28;20051;-59
2023/12/15 11:07:16;;;;;;;0.47;0.47;;;;;;;6.26;100.00;101125.34;5095811;28;20044;-59
2023/12/15 11:09:43;;;;;;;0.30;0.30;;;;;;;6.75;100.00;101123.59;5100968;28;20043;-59
2023/12/15 11:12:28;;;;;;;0.30;0.30;;;;;;;6.66;100.00;101131.63;5102527;27;20461;-60
2023/12/15 11:14:58;;;;;;;0.40;0.40;;;;;;;6.84;100.00;101127.88;5099342;28;20485;-59
2023/12/15 11:17:26;;;;;;;0.40;0.40;;;;;;;6.82;100.00;101129.91;5099704;28;20046;-60
2023/12/15 11:19:57;;;;;;;0.40;0.40;;;;;;;6.61;100.00;101120.59;5097781;28;20718;-60
2023/12/15 11:22:25;;;;;;;0.40;0.40;;;;;;;6.64;100.00;101125.63;5100714;28;20051;-59
2023/12/15 11:24:52;;;;;;;0.35;0.35;;;;;;;6.65;100.00;101132.59;5098632;28;20078;-59
2023/12/15 11:27:21;;;;;;;0.40;0.40;;;;;;;6.70;100.00;101135.59;5114739;27;20066;-60